Terminal Aerodrome Forecast
Issued by NWS Twin Cities, MN

Home | Current Version | Previous Version | Text Only | Print | Product List | Glossary On
Versions: 1 2 3 4 5 6 7 8 9 10 11 12 13 14
000
FTUS43 KMPX 042335
TAFEAU
TAF
KEAU 042335Z 0500/0524 20006KT P6SM SCT007 OVC020
     FM050300 22006KT 4SM BR SCT007 BKN020
     FM050800 VRB03KT 1/2SM FZFG VV002
     FM051500 14009KT P6SM OVC090
     FM052000 16011KT P6SM -RA OVC015=

USA.gov is the U.S. government's official web portal to all federal, state and local government web resources and services.